sensor_id;sensor_type;location;lat;lon;timestamp;P1;durP1;ratioP1;P2;durP2;ratioP2
29432;SDS011;16405;53.964;13.448;2023-03-19T00:03:53;115.97;;;52.05;;
29432;SDS011;16405;53.964;13.448;2023-03-19T00:06:19;126.40;;;54.40;;
29432;SDS011;16405;53.964;13.448;2023-03-19T00:08:54;77.47;;;38.38;;
29432;SDS011;16405;53.964;13.448;2023-03-19T00:11:24;68.20;;;25.52;;
29432;SDS011;16405;53.964;13.448;2023-03-19T00:13:56;38.08;;;23.77;;
29432;SDS011;16405;53.964;13.448;2023-03-19T00:16:25;71.30;;;34.33;;
29432;SDS011;16405;53.964;13.448;2023-03-19T00:18:51;115.97;;;49.53;;
29432;SDS011;16405;53.964;13.448;2023-03-19T00:21:17;123.53;;;55.58;;
29432;SDS011;16405;53.964;13.448;2023-03-19T00:24:11;138.25;;;54.53;;
29432;SDS011;16405;53.964;13.448;2023-03-19T00:26:36;125.82;;;54.95;;
29432;SDS011;16405;53.964;13.448;2023-03-19T00:29:02;64.57;;;38.15;;
29432;SDS011;16405;53.964;13.448;2023-03-19T00:31:40;84.38;;;41.40;;
29432;SDS011;16405;53.964;13.448;2023-03-19T00:34:06;61.38;;;34.55;;
29432;SDS011;16405;53.964;13.448;2023-03-19T00:36:44;118.07;;;53.20;;
29432;SDS011;16405;53.964;13.448;2023-03-19T00:42:21;196.27;;;64.72;;
29432;SDS011;16405;53.964;13.448;2023-03-19T00:44:55;74.35;;;38.25;;
29432;SDS011;16405;53.964;13.448;2023-03-19T00:47:21;101.88;;;47.22;;
29432;SDS011;16405;53.964;13.448;2023-03-19T00:50:01;232.65;;;71.25;;
29432;SDS011;16405;53.964;13.448;2023-03-19T00:52:28;171.68;;;60.65;;
29432;SDS011;16405;53.964;13.448;2023-03-19T00:55:03;174.57;;;59.03;;
29432;SDS011;16405;53.964;13.448;2023-03-19T00:57:50;138.13;;;55.00;;
29432;SDS011;16405;53.964;13.448;2023-03-19T01:00:25;192.80;;;61.63;;
29432;SDS011;16405;53.964;13.448;2023-03-19T01:03:01;138.55;;;54.13;;
29432;SDS011;16405;53.964;13.448;2023-03-19T01:05:31;142.05;;;52.42;;
29432;SDS011;16405;53.964;13.448;2023-03-19T01:08:05;164.23;;;57.47;;
29432;SDS011;16405;53.964;13.448;2023-03-19T01:10:32;176.60;;;58.53;;
29432;SDS011;16405;53.964;13.448;2023-03-19T01:13:01;236.43;;;69.45;;
29432;SDS011;16405;53.964;13.448;2023-03-19T01:15:35;305.10;;;78.38;;
29432;SDS011;16405;53.964;13.448;2023-03-19T01:18:05;244.05;;;69.72;;
29432;SDS011;16405;53.964;13.448;2023-03-19T01:21:10;268.30;;;74.72;;
29432;SDS011;16405;53.964;13.448;2023-03-19T01:23:57;285.27;;;75.93;;
29432;SDS011;16405;53.964;13.448;2023-03-19T01:29:15;221.30;;;81.85;;
29432;SDS011;16405;53.964;13.448;2023-03-19T01:31:40;93.47;;;46.35;;
29432;SDS011;16405;53.964;13.448;2023-03-19T01:34:09;99.13;;;47.55;;
29432;SDS011;16405;53.964;13.448;2023-03-19T01:36:44;143.82;;;57.67;;
29432;SDS011;16405;53.964;13.448;2023-03-19T01:39:17;1684.72;;;143.23;;
29432;SDS011;16405;53.964;13.448;2023-03-19T01:41:43;1329.80;;;153.25;;
29432;SDS011;16405;53.964;13.448;2023-03-19T01:50:03;50.17;;;28.60;;
29432;SDS011;16405;53.964;13.448;2023-03-19T01:52:31;724.22;;;108.70;;
29432;SDS011;16405;53.964;13.448;2023-03-19T01:55:17;582.53;;;95.93;;
29432;SDS011;16405;53.964;13.448;2023-03-19T01:57:46;800.75;;;120.50;;
29432;SDS011;16405;53.964;13.448;2023-03-19T02:00:22;625.15;;;95.28;;
29432;SDS011;16405;53.964;13.448;2023-03-19T02:02:52;528.33;;;78.65;;
29432;SDS011;16405;53.964;13.448;2023-03-19T02:05:32;927.67;;;109.00;;
29432;SDS011;16405;53.964;13.448;2023-03-19T02:08:21;920.92;;;99.78;;
29432;SDS011;16405;53.964;13.448;2023-03-19T02:11:04;185.35;;;58.47;;
29432;SDS011;16405;53.964;13.448;2023-03-19T02:13:33;368.10;;;79.88;;
29432;SDS011;16405;53.964;13.448;2023-03-19T02:16:28;195.70;;;62.58;;
29432;SDS011;16405;53.964;13.448;2023-03-19T02:19:03;317.13;;;51.55;;
29432;SDS011;16405;53.964;13.448;2023-03-19T02:21:32;53.17;;;31.05;;
29432;SDS011;16405;53.964;13.448;2023-03-19T02:24:11;39.22;;;24.70;;
29432;SDS011;16405;53.964;13.448;2023-03-19T02:27:06;42.63;;;26.83;;
29432;SDS011;16405;53.964;13.448;2023-03-19T02:29:40;103.20;;;29.13;;
29432;SDS011;16405;53.964;13.448;2023-03-19T02:32:30;34.05;;;23.90;;
29432;SDS011;16405;53.964;13.448;2023-03-19T02:35:23;41.47;;;24.13;;
29432;SDS011;16405;53.964;13.448;2023-03-19T02:38:00;122.05;;;35.58;;
29432;SDS011;16405;53.964;13.448;2023-03-19T02:40:39;101.25;;;44.35;;
29432;SDS011;16405;53.964;13.448;2023-03-19T02:43:36;111.38;;;49.97;;
29432;SDS011;16405;53.964;13.448;2023-03-19T02:46:07;147.70;;;50.70;;
29432;SDS011;16405;53.964;13.448;2023-03-19T02:48:44;389.00;;;57.08;;
29432;SDS011;16405;53.964;13.448;2023-03-19T02:54:22;404.27;;;69.45;;
29432;SDS011;16405;53.964;13.448;2023-03-19T02:57:00;349.08;;;75.53;;
29432;SDS011;16405;53.964;13.448;2023-03-19T02:59:26;282.13;;;73.47;;
29432;SDS011;16405;53.964;13.448;2023-03-19T03:02:03;368.60;;;87.93;;
29432;SDS011;16405;53.964;13.448;2023-03-19T03:04:39;379.98;;;97.20;;
29432;SDS011;16405;53.964;13.448;2023-03-19T03:07:10;209.20;;;75.57;;
29432;SDS011;16405;53.964;13.448;2023-03-19T03:09:46;236.93;;;64.50;;
29432;SDS011;16405;53.964;13.448;2023-03-19T03:12:12;93.35;;;43.20;;
29432;SDS011;16405;53.964;13.448;2023-03-19T03:14:38;274.17;;;49.00;;
29432;SDS011;16405;53.964;13.448;2023-03-19T03:17:16;243.70;;;53.13;;
29432;SDS011;16405;53.964;13.448;2023-03-19T03:19:48;168.02;;;56.55;;
29432;SDS011;16405;53.964;13.448;2023-03-19T03:22:36;186.10;;;65.00;;
29432;SDS011;16405;53.964;13.448;2023-03-19T03:28:25;170.02;;;67.85;;
29432;SDS011;16405;53.964;13.448;2023-03-19T03:30:57;83.75;;;45.13;;
29432;SDS011;16405;53.964;13.448;2023-03-19T03:36:46;75.88;;;40.25;;
29432;SDS011;16405;53.964;13.448;2023-03-19T03:39:21;127.93;;;52.58;;
29432;SDS011;16405;53.964;13.448;2023-03-19T03:41:50;214.50;;;70.65;;
29432;SDS011;16405;53.964;13.448;2023-03-19T03:44:27;226.27;;;73.97;;
29432;SDS011;16405;53.964;13.448;2023-03-19T03:46:53;194.57;;;70.40;;
29432;SDS011;16405;53.964;13.448;2023-03-19T03:49:30;66.40;;;39.95;;
29432;SDS011;16405;53.964;13.448;2023-03-19T03:51:56;121.47;;;53.80;;
29432;SDS011;16405;53.964;13.448;2023-03-19T03:54:36;84.60;;;42.92;;
29432;SDS011;16405;53.964;13.448;2023-03-19T03:57:02;80.55;;;39.45;;
29432;SDS011;16405;53.964;13.448;2023-03-19T03:59:55;167.50;;;57.92;;
29432;SDS011;16405;53.964;13.448;2023-03-19T04:05:47;73.55;;;38.72;;
29432;SDS011;16405;53.964;13.448;2023-03-19T04:08:14;124.18;;;52.80;;
29432;SDS011;16405;53.964;13.448;2023-03-19T04:11:06;100.65;;;42.08;;
29432;SDS011;16405;53.964;13.448;2023-03-19T04:13:45;47.75;;;30.67;;
29432;SDS011;16405;53.964;13.448;2023-03-19T04:16:11;76.88;;;40.92;;
29432;SDS011;16405;53.964;13.448;2023-03-19T04:19:36;86.63;;;43.88;;
29432;SDS011;16405;53.964;13.448;2023-03-19T04:22:17;108.43;;;48.28;;
29432;SDS011;16405;53.964;13.448;2023-03-19T04:24:46;93.18;;;41.55;;
29432;SDS011;16405;53.964;13.448;2023-03-19T04:27:24;113.95;;;51.10;;
29432;SDS011;16405;53.964;13.448;2023-03-19T04:30:05;119.82;;;54.85;;
29432;SDS011;16405;53.964;13.448;2023-03-19T04:32:41;138.05;;;59.00;;
29432;SDS011;16405;53.964;13.448;2023-03-19T04:38:05;101.25;;;51.88;;
29432;SDS011;16405;53.964;13.448;2023-03-19T04:40:52;101.18;;;53.08;;
29432;SDS011;16405;53.964;13.448;2023-03-19T04:43:56;152.77;;;66.93;;
29432;SDS011;16405;53.964;13.448;2023-03-19T04:49:14;178.50;;;73.95;;
29432;SDS011;16405;53.964;13.448;2023-03-19T04:51:40;190.95;;;76.90;;
29432;SDS011;16405;53.964;13.448;2023-03-19T04:54:06;178.57;;;71.78;;
29432;SDS011;16405;53.964;13.448;2023-03-19T04:56:35;171.63;;;70.75;;
29432;SDS011;16405;53.964;13.448;2023-03-19T04:59:00;158.52;;;66.88;;
29432;SDS011;16405;53.964;13.448;2023-03-19T05:01:26;134.88;;;63.15;;
29432;SDS011;16405;53.964;13.448;2023-03-19T05:03:52;172.75;;;68.68;;
29432;SDS011;16405;53.964;13.448;2023-03-19T05:06:18;122.53;;;61.45;;
29432;SDS011;16405;53.964;13.448;2023-03-19T05:08:44;128.35;;;62.50;;
29432;SDS011;16405;53.964;13.448;2023-03-19T05:11:13;129.98;;;64.75;;
29432;SDS011;16405;53.964;13.448;2023-03-19T05:13:41;122.75;;;63.33;;
29432;SDS011;16405;53.964;13.448;2023-03-19T05:16:07;121.43;;;62.22;;
29432;SDS011;16405;53.964;13.448;2023-03-19T05:18:33;119.43;;;60.55;;
29432;SDS011;16405;53.964;13.448;2023-03-19T05:20:59;104.75;;;56.70;;
29432;SDS011;16405;53.964;13.448;2023-03-19T05:23:24;106.15;;;55.00;;
29432;SDS011;16405;53.964;13.448;2023-03-19T05:25:50;99.97;;;52.80;;
29432;SDS011;16405;53.964;13.448;2023-03-19T05:28:21;97.32;;;52.50;;
29432;SDS011;16405;53.964;13.448;2023-03-19T05:30:47;100.72;;;51.85;;
29432;SDS011;16405;53.964;13.448;2023-03-19T05:33:12;108.65;;;53.78;;
29432;SDS011;16405;53.964;13.448;2023-03-19T05:35:38;103.25;;;52.35;;
29432;SDS011;16405;53.964;13.448;2023-03-19T05:38:05;112.78;;;56.38;;
29432;SDS011;16405;53.964;13.448;2023-03-19T05:40:31;133.68;;;60.05;;
29432;SDS011;16405;53.964;13.448;2023-03-19T05:42:59;103.55;;;53.17;;
29432;SDS011;16405;53.964;13.448;2023-03-19T05:45:26;86.55;;;49.20;;
29432;SDS011;16405;53.964;13.448;2023-03-19T05:47:51;92.45;;;50.85;;
29432;SDS011;16405;53.964;13.448;2023-03-19T05:50:18;93.72;;;53.30;;
29432;SDS011;16405;53.964;13.448;2023-03-19T05:52:43;118.55;;;58.70;;
29432;SDS011;16405;53.964;13.448;2023-03-19T05:55:09;89.05;;;48.85;;
29432;SDS011;16405;53.964;13.448;2023-03-19T05:57:36;114.00;;;57.13;;
29432;SDS011;16405;53.964;13.448;2023-03-19T06:00:05;108.90;;;53.35;;
29432;SDS011;16405;53.964;13.448;2023-03-19T06:02:32;93.57;;;52.72;;
29432;SDS011;16405;53.964;13.448;2023-03-19T06:04:59;101.32;;;53.85;;
29432;SDS011;16405;53.964;13.448;2023-03-19T06:07:25;88.57;;;49.53;;
29432;SDS011;16405;53.964;13.448;2023-03-19T06:09:53;83.95;;;49.95;;
29432;SDS011;16405;53.964;13.448;2023-03-19T06:12:22;81.55;;;47.42;;
29432;SDS011;16405;53.964;13.448;2023-03-19T06:14:48;108.35;;;58.90;;
29432;SDS011;16405;53.964;13.448;2023-03-19T06:17:15;95.03;;;54.78;;
29432;SDS011;16405;53.964;13.448;2023-03-19T06:19:41;84.47;;;49.08;;
29432;SDS011;16405;53.964;13.448;2023-03-19T06:22:07;94.85;;;50.67;;
29432;SDS011;16405;53.964;13.448;2023-03-19T06:24:35;88.68;;;45.75;;
29432;SDS011;16405;53.964;13.448;2023-03-19T06:27:01;91.65;;;47.50;;
29432;SDS011;16405;53.964;13.448;2023-03-19T06:29:27;84.45;;;44.97;;
29432;SDS011;16405;53.964;13.448;2023-03-19T06:31:53;85.00;;;44.30;;
29432;SDS011;16405;53.964;13.448;2023-03-19T06:34:19;75.95;;;41.35;;
29432;SDS011;16405;53.964;13.448;2023-03-19T06:36:46;82.80;;;43.60;;
29432;SDS011;16405;53.964;13.448;2023-03-19T06:39:17;67.97;;;40.22;;
29432;SDS011;16405;53.964;13.448;2023-03-19T06:41:43;77.95;;;43.58;;
29432;SDS011;16405;53.964;13.448;2023-03-19T06:44:09;81.28;;;45.58;;
29432;SDS011;16405;53.964;13.448;2023-03-19T06:46:35;91.75;;;48.10;;
29432;SDS011;16405;53.964;13.448;2023-03-19T06:49:01;86.82;;;49.67;;
29432;SDS011;16405;53.964;13.448;2023-03-19T06:51:29;84.93;;;50.03;;
29432;SDS011;16405;53.964;13.448;2023-03-19T06:53:57;90.07;;;50.08;;
29432;SDS011;16405;53.964;13.448;2023-03-19T06:56:23;74.30;;;41.67;;
29432;SDS011;16405;53.964;13.448;2023-03-19T06:58:50;89.03;;;46.78;;
29432;SDS011;16405;53.964;13.448;2023-03-19T07:01:15;77.03;;;44.75;;
29432;SDS011;16405;53.964;13.448;2023-03-19T07:03:41;79.18;;;45.05;;
29432;SDS011;16405;53.964;13.448;2023-03-19T07:06:07;93.72;;;50.17;;
29432;SDS011;16405;53.964;13.448;2023-03-19T07:08:38;80.47;;;50.35;;
29432;SDS011;16405;53.964;13.448;2023-03-19T07:11:05;87.40;;;49.80;;
29432;SDS011;16405;53.964;13.448;2023-03-19T07:13:31;88.15;;;48.85;;
29432;SDS011;16405;53.964;13.448;2023-03-19T07:15:58;80.07;;;47.05;;
29432;SDS011;16405;53.964;13.448;2023-03-19T07:18:30;81.07;;;47.83;;
29432;SDS011;16405;53.964;13.448;2023-03-19T07:20:56;83.78;;;48.88;;
29432;SDS011;16405;53.964;13.448;2023-03-19T07:23:21;79.45;;;49.10;;
29432;SDS011;16405;53.964;13.448;2023-03-19T07:25:47;86.00;;;47.22;;
29432;SDS011;16405;53.964;13.448;2023-03-19T07:28:13;79.97;;;48.70;;
29432;SDS011;16405;53.964;13.448;2023-03-19T07:30:39;105.60;;;54.55;;
29432;SDS011;16405;53.964;13.448;2023-03-19T07:33:09;89.25;;;48.15;;
29432;SDS011;16405;53.964;13.448;2023-03-19T07:35:35;152.70;;;86.90;;
29432;SDS011;16405;53.964;13.448;2023-03-19T07:38:01;85.18;;;52.30;;
29432;SDS011;16405;53.964;13.448;2023-03-19T07:40:27;100.82;;;59.70;;
29432;SDS011;16405;53.964;13.448;2023-03-19T07:42:53;195.52;;;51.22;;
29432;SDS011;16405;53.964;13.448;2023-03-19T07:45:19;43.38;;;25.08;;
29432;SDS011;16405;53.964;13.448;2023-03-19T07:47:52;68.43;;;39.33;;
29432;SDS011;16405;53.964;13.448;2023-03-19T07:50:18;68.28;;;41.20;;
29432;SDS011;16405;53.964;13.448;2023-03-19T07:52:47;66.90;;;42.80;;
29432;SDS011;16405;53.964;13.448;2023-03-19T07:55:17;111.38;;;59.60;;
29432;SDS011;16405;53.964;13.448;2023-03-19T07:57:43;94.68;;;57.53;;
29432;SDS011;16405;53.964;13.448;2023-03-19T08:00:09;65.97;;;41.30;;
29432;SDS011;16405;53.964;13.448;2023-03-19T08:02:36;68.30;;;38.72;;
29432;SDS011;16405;53.964;13.448;2023-03-19T08:05:02;68.05;;;41.30;;
29432;SDS011;16405;53.964;13.448;2023-03-19T08:07:32;54.05;;;36.85;;
29432;SDS011;16405;53.964;13.448;2023-03-19T08:09:58;58.83;;;38.40;;
29432;SDS011;16405;53.964;13.448;2023-03-19T08:12:28;57.42;;;37.95;;
29432;SDS011;16405;53.964;13.448;2023-03-19T08:14:56;53.08;;;35.65;;
29432;SDS011;16405;53.964;13.448;2023-03-19T08:17:32;49.95;;;34.70;;
29432;SDS011;16405;53.964;13.448;2023-03-19T08:20:03;48.30;;;32.90;;
29432;SDS011;16405;53.964;13.448;2023-03-19T08:22:32;47.25;;;30.42;;
29432;SDS011;16405;53.964;13.448;2023-03-19T08:25:00;139.07;;;57.83;;
29432;SDS011;16405;53.964;13.448;2023-03-19T08:27:27;46.38;;;31.55;;
29432;SDS011;16405;53.964;13.448;2023-03-19T08:29:58;42.13;;;28.67;;
29432;SDS011;16405;53.964;13.448;2023-03-19T08:32:24;49.17;;;29.40;;
29432;SDS011;16405;53.964;13.448;2023-03-19T08:34:53;47.22;;;28.45;;
29432;SDS011;16405;53.964;13.448;2023-03-19T08:37:19;46.47;;;31.90;;
29432;SDS011;16405;53.964;13.448;2023-03-19T08:39:46;39.35;;;28.17;;
29432;SDS011;16405;53.964;13.448;2023-03-19T08:42:18;43.70;;;29.90;;
29432;SDS011;16405;53.964;13.448;2023-03-19T08:44:49;47.33;;;31.20;;
29432;SDS011;16405;53.964;13.448;2023-03-19T08:47:18;40.97;;;28.50;;
29432;SDS011;16405;53.964;13.448;2023-03-19T08:49:48;40.08;;;28.38;;
29432;SDS011;16405;53.964;13.448;2023-03-19T08:52:21;38.30;;;27.92;;
29432;SDS011;16405;53.964;13.448;2023-03-19T08:54:50;33.65;;;23.30;;
29432;SDS011;16405;53.964;13.448;2023-03-19T08:57:16;35.50;;;24.08;;
29432;SDS011;16405;53.964;13.448;2023-03-19T08:59:47;33.90;;;23.75;;
29432;SDS011;16405;53.964;13.448;2023-03-19T09:02:16;29.63;;;22.20;;
29432;SDS011;16405;53.964;13.448;2023-03-19T09:04:45;30.80;;;21.40;;
29432;SDS011;16405;53.964;13.448;2023-03-19T09:07:19;33.95;;;20.95;;
29432;SDS011;16405;53.964;13.448;2023-03-19T09:09:49;32.28;;;20.48;;
29432;SDS011;16405;53.964;13.448;2023-03-19T09:12:20;28.70;;;20.42;;
29432;SDS011;16405;53.964;13.448;2023-03-19T09:14:50;27.92;;;19.40;;
29432;SDS011;16405;53.964;13.448;2023-03-19T09:17:16;27.73;;;18.65;;
29432;SDS011;16405;53.964;13.448;2023-03-19T09:19:44;27.48;;;17.83;;
29432;SDS011;16405;53.964;13.448;2023-03-19T09:22:11;27.45;;;17.77;;
29432;SDS011;16405;53.964;13.448;2023-03-19T09:24:40;27.30;;;17.48;;
29432;SDS011;16405;53.964;13.448;2023-03-19T09:27:06;20.42;;;15.73;;
29432;SDS011;16405;53.964;13.448;2023-03-19T09:29:36;24.60;;;15.30;;
29432;SDS011;16405;53.964;13.448;2023-03-19T09:32:09;20.98;;;15.05;;
29432;SDS011;16405;53.964;13.448;2023-03-19T09:34:38;20.55;;;12.80;;
29432;SDS011;16405;53.964;13.448;2023-03-19T09:37:11;19.58;;;12.88;;
29432;SDS011;16405;53.964;13.448;2023-03-19T09:39:37;15.20;;;11.57;;
29432;SDS011;16405;53.964;13.448;2023-03-19T09:44:52;15.70;;;10.25;;
29432;SDS011;16405;53.964;13.448;2023-03-19T09:47:34;15.60;;;11.38;;
29432;SDS011;16405;53.964;13.448;2023-03-19T09:53:00;14.43;;;10.88;;
29432;SDS011;16405;53.964;13.448;2023-03-19T09:55:48;12.52;;;9.38;;
29432;SDS011;16405;53.964;13.448;2023-03-19T09:58:22;15.05;;;9.32;;
29432;SDS011;16405;53.964;13.448;2023-03-19T10:01:01;17.83;;;11.80;;
29432;SDS011;16405;53.964;13.448;2023-03-19T10:03:45;21.27;;;13.20;;
29432;SDS011;16405;53.964;13.448;2023-03-19T10:06:42;18.92;;;13.90;;
29432;SDS011;16405;53.964;13.448;2023-03-19T10:15:43;17.33;;;9.90;;
29432;SDS011;16405;53.964;13.448;2023-03-19T10:18:15;12.70;;;8.32;;
29432;SDS011;16405;53.964;13.448;2023-03-19T10:20:57;13.07;;;8.50;;
29432;SDS011;16405;53.964;13.448;2023-03-19T10:23:49;13.02;;;9.80;;
29432;SDS011;16405;53.964;13.448;2023-03-19T10:26:36;10.88;;;8.10;;
29432;SDS011;16405;53.964;13.448;2023-03-19T10:29:10;12.43;;;8.00;;
29432;SDS011;16405;53.964;13.448;2023-03-19T10:34:53;12.95;;;7.72;;
29432;SDS011;16405;53.964;13.448;2023-03-19T10:37:29;12.32;;;7.68;;
29432;SDS011;16405;53.964;13.448;2023-03-19T10:39:58;12.02;;;7.68;;
29432;SDS011;16405;53.964;13.448;2023-03-19T10:42:46;11.18;;;8.00;;
29432;SDS011;16405;53.964;13.448;2023-03-19T10:45:41;11.52;;;8.10;;
29432;SDS011;16405;53.964;13.448;2023-03-19T10:48:11;8.32;;;6.43;;
29432;SDS011;16405;53.964;13.448;2023-03-19T10:50:52;11.25;;;7.90;;
29432;SDS011;16405;53.964;13.448;2023-03-19T10:56:21;12.50;;;7.53;;
29432;SDS011;16405;53.964;13.448;2023-03-19T11:01:26;8.75;;;6.47;;
29432;SDS011;16405;53.964;13.448;2023-03-19T11:04:11;12.35;;;6.82;;
29432;SDS011;16405;53.964;13.448;2023-03-19T11:06:51;8.73;;;6.57;;
29432;SDS011;16405;53.964;13.448;2023-03-19T11:09:34;10.02;;;6.47;;
29432;SDS011;16405;53.964;13.448;2023-03-19T11:12:17;9.48;;;6.53;;
29432;SDS011;16405;53.964;13.448;2023-03-19T11:15:19;12.65;;;6.82;;
29432;SDS011;16405;53.964;13.448;2023-03-19T11:18:05;10.50;;;6.35;;
29432;SDS011;16405;53.964;13.448;2023-03-19T11:20:58;9.57;;;6.10;;
29432;SDS011;16405;53.964;13.448;2023-03-19T11:23:37;9.32;;;6.10;;
29432;SDS011;16405;53.964;13.448;2023-03-19T11:26:06;7.93;;;5.75;;
29432;SDS011;16405;53.964;13.448;2023-03-19T11:28:43;10.25;;;6.22;;
29432;SDS011;16405;53.964;13.448;2023-03-19T11:34:19;6.35;;;4.80;;
29432;SDS011;16405;53.964;13.448;2023-03-19T11:37:25;7.22;;;4.00;;
29432;SDS011;16405;53.964;13.448;2023-03-19T11:53:26;5.10;;;2.90;;
29432;SDS011;16405;53.964;13.448;2023-03-19T12:05:43;1.60;;;0.50;;
29432;SDS011;16405;53.964;13.448;2023-03-19T12:08:36;1.13;;;0.60;;
29432;SDS011;16405;53.964;13.448;2023-03-19T12:17:37;2.35;;;0.80;;
29432;SDS011;16405;53.964;13.448;2023-03-19T12:20:41;1.23;;;0.90;;
29432;SDS011;16405;53.964;13.448;2023-03-19T12:26:46;1.90;;;1.10;;
29432;SDS011;16405;53.964;13.448;2023-03-19T12:29:21;2.58;;;0.90;;
29432;SDS011;16405;53.964;13.448;2023-03-19T12:35:08;2.63;;;0.98;;
29432;SDS011;16405;53.964;13.448;2023-03-19T12:37:57;1.60;;;1.10;;
29432;SDS011;16405;53.964;13.448;2023-03-19T12:49:29;2.25;;;1.15;;
29432;SDS011;16405;53.964;13.448;2023-03-19T12:57:51;1.42;;;0.98;;
29432;SDS011;16405;53.964;13.448;2023-03-19T13:01:08;3.08;;;1.17;;
29432;SDS011;16405;53.964;13.448;2023-03-19T13:04:08;5.35;;;1.15;;
29432;SDS011;16405;53.964;13.448;2023-03-19T13:07:19;3.08;;;1.30;;
29432;SDS011;16405;53.964;13.448;2023-03-19T13:09:48;2.78;;;1.27;;
29432;SDS011;16405;53.964;13.448;2023-03-19T13:12:29;4.20;;;1.52;;
29432;SDS011;16405;53.964;13.448;2023-03-19T13:15:02;4.20;;;1.67;;
29432;SDS011;16405;53.964;13.448;2023-03-19T13:24:50;5.80;;;2.08;;
29432;SDS011;16405;53.964;13.448;2023-03-19T13:26:58;3.65;;;1.52;;
29432;SDS011;16405;53.964;13.448;2023-03-19T13:29:26;4.45;;;2.00;;
29432;SDS011;16405;53.964;13.448;2023-03-19T13:32:03;4.30;;;1.88;;
29432;SDS011;16405;53.964;13.448;2023-03-19T13:34:35;5.45;;;2.10;;
29432;SDS011;16405;53.964;13.448;2023-03-19T13:37:12;6.70;;;2.20;;
29432;SDS011;16405;53.964;13.448;2023-03-19T13:39:47;4.88;;;1.83;;
29432;SDS011;16405;53.964;13.448;2023-03-19T13:42:34;5.22;;;2.17;;
29432;SDS011;16405;53.964;13.448;2023-03-19T13:47:53;6.38;;;2.13;;
29432;SDS011;16405;53.964;13.448;2023-03-19T13:50:26;7.25;;;1.90;;
29432;SDS011;16405;53.964;13.448;2023-03-19T13:53:10;6.60;;;2.00;;
29432;SDS011;16405;53.964;13.448;2023-03-19T13:55:54;4.68;;;2.20;;
29432;SDS011;16405;53.964;13.448;2023-03-19T13:58:26;3.90;;;2.15;;
29432;SDS011;16405;53.964;13.448;2023-03-19T14:01:33;6.30;;;2.28;;
29432;SDS011;16405;53.964;13.448;2023-03-19T14:04:03;4.30;;;1.73;;
29432;SDS011;16405;53.964;13.448;2023-03-19T14:06:40;6.40;;;2.53;;
29432;SDS011;16405;53.964;13.448;2023-03-19T14:25:19;9.07;;;1.95;;
29432;SDS011;16405;53.964;13.448;2023-03-19T14:27:53;5.00;;;2.53;;
29432;SDS011;16405;53.964;13.448;2023-03-19T14:30:36;4.22;;;2.20;;
29432;SDS011;16405;53.964;13.448;2023-03-19T14:33:15;5.78;;;2.50;;
29432;SDS011;16405;53.964;13.448;2023-03-19T14:36:03;7.40;;;2.20;;
29432;SDS011;16405;53.964;13.448;2023-03-19T14:38:37;9.43;;;2.53;;
29432;SDS011;16405;53.964;13.448;2023-03-19T14:41:14;4.65;;;2.55;;
29432;SDS011;16405;53.964;13.448;2023-03-19T14:52:21;8.55;;;2.88;;
29432;SDS011;16405;53.964;13.448;2023-03-19T14:55:01;5.93;;;2.70;;
29432;SDS011;16405;53.964;13.448;2023-03-19T15:00:06;7.65;;;2.90;;
29432;SDS011;16405;53.964;13.448;2023-03-19T15:02:39;5.55;;;2.42;;
29432;SDS011;16405;53.964;13.448;2023-03-19T15:07:52;6.18;;;2.78;;
29432;SDS011;16405;53.964;13.448;2023-03-19T15:10:27;6.53;;;2.90;;
29432;SDS011;16405;53.964;13.448;2023-03-19T15:19:25;9.20;;;2.70;;
29432;SDS011;16405;53.964;13.448;2023-03-19T15:22:13;7.78;;;3.03;;
29432;SDS011;16405;53.964;13.448;2023-03-19T15:25:03;6.22;;;3.00;;
29432;SDS011;16405;53.964;13.448;2023-03-19T15:27:39;6.38;;;2.90;;
29432;SDS011;16405;53.964;13.448;2023-03-19T15:30:24;6.75;;;3.17;;
29432;SDS011;16405;53.964;13.448;2023-03-19T15:32:52;7.35;;;2.92;;
29432;SDS011;16405;53.964;13.448;2023-03-19T15:35:18;8.48;;;3.38;;
29432;SDS011;16405;53.964;13.448;2023-03-19T15:37:48;5.65;;;3.00;;
29432;SDS011;16405;53.964;13.448;2023-03-19T15:40:19;8.90;;;3.08;;
29432;SDS011;16405;53.964;13.448;2023-03-19T15:42:54;7.20;;;3.40;;
29432;SDS011;16405;53.964;13.448;2023-03-19T15:45:24;5.38;;;3.38;;
29432;SDS011;16405;53.964;13.448;2023-03-19T15:47:53;7.35;;;3.63;;
29432;SDS011;16405;53.964;13.448;2023-03-19T15:50:32;8.23;;;3.70;;
29432;SDS011;16405;53.964;13.448;2023-03-19T15:53:09;7.90;;;3.90;;
29432;SDS011;16405;53.964;13.448;2023-03-19T15:55:46;11.65;;;4.10;;
29432;SDS011;16405;53.964;13.448;2023-03-19T15:58:15;7.15;;;3.83;;
29432;SDS011;16405;53.964;13.448;2023-03-19T16:00:46;7.43;;;4.00;;
29432;SDS011;16405;53.964;13.448;2023-03-19T16:03:24;6.72;;;3.80;;
29432;SDS011;16405;53.964;13.448;2023-03-19T16:05:59;9.27;;;4.30;;
29432;SDS011;16405;53.964;13.448;2023-03-19T16:08:28;10.75;;;3.72;;
29432;SDS011;16405;53.964;13.448;2023-03-19T16:10:54;8.30;;;4.30;;
29432;SDS011;16405;53.964;13.448;2023-03-19T16:17:12;8.32;;;4.22;;
29432;SDS011;16405;53.964;13.448;2023-03-19T16:19:54;5.90;;;4.05;;
29432;SDS011;16405;53.964;13.448;2023-03-19T16:22:29;12.75;;;4.30;;
29432;SDS011;16405;53.964;13.448;2023-03-19T16:24:56;13.63;;;4.88;;
29432;SDS011;16405;53.964;13.448;2023-03-19T16:27:35;10.35;;;4.80;;
29432;SDS011;16405;53.964;13.448;2023-03-19T16:30:11;12.43;;;4.75;;
29432;SDS011;16405;53.964;13.448;2023-03-19T16:32:45;13.23;;;5.35;;
29432;SDS011;16405;53.964;13.448;2023-03-19T16:35:28;11.40;;;4.75;;
29432;SDS011;16405;53.964;13.448;2023-03-19T16:43:59;10.63;;;5.38;;
29432;SDS011;16405;53.964;13.448;2023-03-19T16:46:39;7.55;;;4.28;;
29432;SDS011;16405;53.964;13.448;2023-03-19T16:49:05;9.60;;;4.85;;
29432;SDS011;16405;53.964;13.448;2023-03-19T16:51:31;8.65;;;5.00;;
29432;SDS011;16405;53.964;13.448;2023-03-19T16:53:58;12.85;;;4.78;;
29432;SDS011;16405;53.964;13.448;2023-03-19T16:56:24;11.00;;;5.32;;
29432;SDS011;16405;53.964;13.448;2023-03-19T16:58:50;9.27;;;5.35;;
29432;SDS011;16405;53.964;13.448;2023-03-19T17:01:16;12.18;;;5.50;;
29432;SDS011;16405;53.964;13.448;2023-03-19T17:03:46;10.90;;;6.10;;
29432;SDS011;16405;53.964;13.448;2023-03-19T17:06:13;11.65;;;5.88;;
29432;SDS011;16405;53.964;13.448;2023-03-19T17:08:40;10.27;;;6.10;;
29432;SDS011;16405;53.964;13.448;2023-03-19T17:11:28;12.23;;;6.25;;
29432;SDS011;16405;53.964;13.448;2023-03-19T17:13:58;10.35;;;5.95;;
29432;SDS011;16405;53.964;13.448;2023-03-19T17:16:25;12.88;;;6.72;;
29432;SDS011;16405;53.964;13.448;2023-03-19T17:18:51;12.90;;;6.22;;
29432;SDS011;16405;53.964;13.448;2023-03-19T17:21:28;10.30;;;5.40;;
29432;SDS011;16405;53.964;13.448;2023-03-19T17:23:57;11.73;;;5.95;;
29432;SDS011;16405;53.964;13.448;2023-03-19T17:26:40;12.20;;;5.95;;
29432;SDS011;16405;53.964;13.448;2023-03-19T17:29:06;14.73;;;6.32;;
29432;SDS011;16405;53.964;13.448;2023-03-19T17:31:32;10.30;;;5.95;;
29432;SDS011;16405;53.964;13.448;2023-03-19T17:34:02;12.05;;;5.95;;